Time;durP1;ratioP1;P1;durP2;ratioP2;P2;SDS_P1;SDS_P2;PMS_P1;PMS_P2;Temp;Humidity;BMP_temperature;BMP_pressure;BME280_temperature;BME280_humidity;BME280_pressure;Samples;Min_cycle;Max_cycle;Signal;HPM_P1;HPM_P2
2023/03/22 00:00:54;;;;;;;13.32;7.55;;;10.50;99.90;;;;;;6091191;23;20018;-71
2023/03/22 00:03:22;;;;;;;16.00;8.52;;;10.50;99.90;;;;;;6092132;23;20033;-73
2023/03/22 00:05:48;;;;;;;14.02;7.63;;;10.50;99.90;;;;;;6092487;23;20446;-74
2023/03/22 00:08:16;;;;;;;10.80;7.07;;;10.50;99.90;;;;;;6092198;23;20041;-71
2023/03/22 00:10:41;;;;;;;15.88;7.78;;;10.50;99.90;;;;;;6091849;23;20340;-72
2023/03/22 00:13:09;;;;;;;16.13;7.05;;;10.50;99.90;;;;;;6091769;23;20022;-72
2023/03/22 00:15:35;;;;;;;11.85;6.68;;;10.50;99.90;;;;;;6091892;23;20010;-72
2023/03/22 00:18:04;;;;;;;12.40;6.55;;;10.50;99.90;;;;;;6091661;23;20010;-72
2023/03/22 00:20:32;;;;;;;14.13;6.10;;;10.50;99.90;;;;;;6093447;23;20356;-72
2023/03/22 00:22:59;;;;;;;16.00;6.75;;;10.60;99.90;;;;;;6094353;23;20057;-72
2023/03/22 00:25:24;;;;;;;13.65;6.47;;;10.50;99.90;;;;;;6093920;23;20060;-73
2023/03/22 00:27:50;;;;;;;14.95;7.32;;;10.50;99.90;;;;;;6093851;23;20022;-72
2023/03/22 00:30:16;;;;;;;14.63;6.53;;;10.50;99.90;;;;;;6067805;23;20249;-72
2023/03/22 00:32:42;;;;;;;12.40;6.80;;;10.50;99.90;;;;;;6093880;23;20044;-72
2023/03/22 00:35:09;;;;;;;16.30;7.50;;;10.50;99.90;;;;;;6068006;23;20050;-73
2023/03/22 00:37:37;;;;;;;14.88;6.75;;;10.50;99.90;;;;;;6068281;23;20028;-73
2023/03/22 00:40:08;;;;;;;15.82;7.68;;;10.50;99.90;;;;;;6093773;23;20110;-74
2023/03/22 00:42:38;;;;;;;14.38;7.80;;;10.40;99.90;;;;;;6093718;23;20085;-73
2023/03/22 00:45:07;;;;;;;16.30;8.27;;;10.40;99.90;;;;;;6093150;23;20011;-73
2023/03/22 00:47:33;;;;;;;13.43;7.43;;;10.30;99.90;;;;;;6067579;23;20019;-72
2023/03/22 00:49:59;;;;;;;16.45;9.02;;;10.30;99.90;;;;;;6067834;23;20109;-72
2023/03/22 00:52:25;;;;;;;17.10;7.78;;;10.30;99.90;;;;;;6093969;23;20025;-73
2023/03/22 00:54:51;;;;;;;16.42;7.40;;;10.30;99.90;;;;;;6093736;23;20106;-73
2023/03/22 00:57:16;;;;;;;13.32;6.65;;;10.30;99.90;;;;;;6093615;23;20028;-73
2023/03/22 00:59:43;;;;;;;19.48;8.13;;;10.30;99.90;;;;;;6093673;23;20021;-71
2023/03/22 01:02:12;;;;;;;17.95;6.78;;;10.40;99.90;;;;;;6067564;23;20088;-72
2023/03/22 01:04:45;;;;;;;15.35;7.03;;;10.40;99.90;;;;;;6093823;23;20015;-73
2023/03/22 01:07:20;;;;;;;12.07;6.40;;;10.30;99.90;;;;;;6093497;23;20014;-73
2023/03/22 01:09:47;;;;;;;14.68;6.20;;;10.30;99.90;;;;;;6093380;23;20025;-72
2023/03/22 01:12:13;;;;;;;12.90;6.82;;;10.30;99.90;;;;;;6093213;23;20014;-72
2023/03/22 01:14:39;;;;;;;12.55;6.40;;;10.30;99.90;;;;;;6067159;23;20449;-73
2023/03/22 01:17:06;;;;;;;12.50;5.72;;;10.20;99.90;;;;;;6067530;23;20046;-72
2023/03/22 01:19:32;;;;;;;13.00;5.97;;;10.30;99.90;;;;;;6093564;23;20066;-73
2023/03/22 01:21:58;;;;;;;11.38;5.97;;;10.30;99.90;;;;;;6093396;23;20019;-74
2023/03/22 01:24:24;;;;;;;11.13;5.32;;;10.30;99.90;;;;;;6093897;23;20140;-73
2023/03/22 01:26:49;;;;;;;13.60;5.85;;;10.30;99.90;;;;;;6093646;23;20038;-72
2023/03/22 01:29:15;;;;;;;13.02;5.93;;;10.30;99.90;;;;;;6092911;23;20018;-71
2023/03/22 01:31:42;;;;;;;6.45;4.47;;;10.20;99.90;;;;;;6077063;23;20015;-72
2023/03/22 01:34:08;;;;;;;11.55;4.75;;;10.20;99.90;;;;;;6093420;23;20006;-72
2023/03/22 01:36:35;;;;;;;10.60;5.00;;;10.20;99.90;;;;;;6067526;23;20014;-74
2023/03/22 01:39:01;;;;;;;7.38;4.18;;;10.30;99.90;;;;;;6091409;23;20037;-73
2023/03/22 01:41:27;;;;;;;8.93;4.63;;;10.20;99.90;;;;;;6093371;23;20094;-73
2023/03/22 01:44:15;;;;;;;9.63;3.80;;;10.20;99.90;;;;;;6093443;23;20071;-73
2023/03/22 01:46:44;;;;;;;8.35;4.20;;;10.20;99.90;;;;;;6093037;23;20338;-72
2023/03/22 01:49:32;;;;;;;9.77;4.43;;;10.20;99.90;;;;;;6091138;23;20404;-73
2023/03/22 01:52:02;;;;;;;8.27;3.35;;;10.20;99.90;;;;;;6091839;23;20037;-72
2023/03/22 01:54:41;;;;;;;11.32;3.78;;;10.20;99.90;;;;;;6093716;23;20011;-74
2023/03/22 01:57:07;;;;;;;10.90;3.65;;;10.20;99.90;;;;;;6093325;23;20409;-72
2023/03/22 01:59:33;;;;;;;7.55;3.35;;;10.20;99.90;;;;;;6092883;23;20055;-73
2023/03/22 02:02:01;;;;;;;9.57;3.42;;;10.20;99.90;;;;;;6092774;23;20153;-72
2023/03/22 02:04:33;;;;;;;11.80;3.65;;;10.20;99.90;;;;;;6093290;23;20058;-73
2023/03/22 02:07:08;;;;;;;10.00;3.00;;;10.20;99.90;;;;;;6092898;23;20014;-72
2023/03/22 02:09:38;;;;;;;6.38;3.28;;;10.20;99.90;;;;;;6090461;23;20014;-72
2023/03/22 02:12:37;;;;;;;8.88;3.97;;;10.20;99.90;;;;;;6091939;23;20014;-73
2023/03/22 02:15:20;;;;;;;8.98;3.80;;;10.20;99.90;;;;;;6092611;23;20050;-72
2023/03/22 02:18:05;;;;;;;7.07;3.85;;;10.10;99.90;;;;;;6066668;23;20030;-73
2023/03/22 02:21:08;;;;;;;12.15;3.95;;;10.10;99.90;;;;;;6092838;23;20086;-73
2023/03/22 02:23:40;;;;;;;8.15;3.45;;;10.10;99.90;;;;;;6092754;23;20014;-73
2023/03/22 02:26:30;;;;;;;10.38;3.58;;;10.10;99.90;;;;;;6090283;23;20319;-73
2023/03/22 02:29:11;;;;;;;9.23;3.60;;;10.10;99.90;;;;;;6090535;23;20086;-74
2023/03/22 02:31:56;;;;;;;11.05;3.20;;;10.10;99.90;;;;;;6092231;23;20292;-73
2023/03/22 02:34:40;;;;;;;8.05;3.83;;;10.10;99.90;;;;;;6066180;23;20407;-73
2023/03/22 02:37:32;;;;;;;10.63;3.35;;;10.10;99.90;;;;;;6066473;23;20010;-74
2023/03/22 02:40:10;;;;;;;9.52;4.00;;;10.10;99.90;;;;;;6092078;23;20016;-73
2023/03/22 02:43:01;;;;;;;8.48;3.30;;;10.10;99.90;;;;;;6092071;23;20018;-73
2023/03/22 02:45:44;;;;;;;11.55;3.95;;;10.10;99.90;;;;;;6091143;23;20019;-73
2023/03/22 02:48:29;;;;;;;7.68;3.47;;;10.00;99.90;;;;;;6066497;23;20081;-73
2023/03/22 02:51:04;;;;;;;6.70;3.40;;;10.00;99.90;;;;;;6092247;23;20033;-73
2023/03/22 02:53:40;;;;;;;8.63;3.58;;;10.10;99.90;;;;;;6092542;23;20320;-72
2023/03/22 02:56:22;;;;;;;10.35;3.95;;;10.00;99.90;;;;;;6091893;23;20025;-73
2023/03/22 02:58:52;;;;;;;7.47;3.00;;;10.00;99.90;;;;;;6091739;23;20018;-74
2023/03/22 03:01:28;;;;;;;9.88;3.75;;;10.00;99.90;;;;;;6091895;23;20054;-73
2023/03/22 03:04:01;;;;;;;10.27;3.28;;;10.00;99.90;;;;;;6091910;23;20015;-73
2023/03/22 03:06:30;;;;;;;9.75;3.60;;;10.00;99.90;;;;;;6092029;23;20081;-74
2023/03/22 03:08:57;;;;;;;9.68;3.75;;;10.00;99.90;;;;;;6091842;23;20033;-72
2023/03/22 03:11:23;;;;;;;10.77;4.15;;;9.90;99.90;;;;;;6091984;23;20014;-72
2023/03/22 03:13:49;;;;;;;12.88;3.92;;;9.90;99.90;;;;;;6092147;23;20014;-73
2023/03/22 03:16:21;;;;;;;13.15;5.70;;;9.90;99.90;;;;;;6066715;23;20097;-72
2023/03/22 03:19:07;;;;;;;9.60;4.13;;;9.90;99.90;;;;;;6091796;23;20027;-72
2023/03/22 03:21:44;;;;;;;8.23;3.85;;;9.80;99.90;;;;;;6092291;23;20044;-72
2023/03/22 03:24:21;;;;;;;10.18;3.88;;;9.90;99.90;;;;;;6091618;23;20054;-72
2023/03/22 03:27:12;;;;;;;9.23;4.30;;;9.80;99.90;;;;;;6092116;23;20069;-73
2023/03/22 03:29:46;;;;;;;9.32;3.90;;;9.80;99.90;;;;;;6091649;23;20014;-73
2023/03/22 03:32:41;;;;;;;8.55;3.60;;;9.80;99.90;;;;;;6081628;23;20023;-72
2023/03/22 03:35:21;;;;;;;9.07;4.13;;;9.80;99.90;;;;;;6076329;23;20437;-72
2023/03/22 03:37:52;;;;;;;8.30;3.70;;;9.80;99.90;;;;;;6091366;23;20453;-73
2023/03/22 03:40:29;;;;;;;6.88;3.90;;;9.80;99.90;;;;;;6091805;23;20014;-72
2023/03/22 03:42:57;;;;;;;7.40;3.15;;;9.80;99.90;;;;;;6090188;23;20018;-73
2023/03/22 03:45:24;;;;;;;6.70;4.10;;;9.70;99.90;;;;;;6091710;23;20331;-73
2023/03/22 03:47:55;;;;;;;7.68;3.90;;;9.80;99.90;;;;;;6091810;23;20102;-73
2023/03/22 03:50:24;;;;;;;11.32;4.13;;;9.70;99.90;;;;;;6090087;23;20093;-72
2023/03/22 03:52:50;;;;;;;6.00;3.63;;;9.80;99.90;;;;;;6089491;23;20105;-73
2023/03/22 03:55:17;;;;;;;11.68;4.07;;;9.70;99.90;;;;;;6092347;23;20086;-73
2023/03/22 03:57:42;;;;;;;10.45;4.10;;;9.80;99.90;;;;;;6089912;23;20025;-73
2023/03/22 04:00:09;;;;;;;10.85;4.15;;;9.80;99.90;;;;;;6091580;23;20291;-73
2023/03/22 04:02:34;;;;;;;8.18;4.07;;;9.80;99.90;;;;;;6091804;23;20355;-73
2023/03/22 04:05:00;;;;;;;8.95;4.57;;;9.80;99.90;;;;;;6089465;23;20049;-72
2023/03/22 04:07:26;;;;;;;11.52;5.00;;;9.80;99.90;;;;;;6089449;23;20445;-72
2023/03/22 04:09:52;;;;;;;11.43;4.40;;;9.80;99.90;;;;;;6092317;23;20042;-73
2023/03/22 04:12:17;;;;;;;9.10;4.57;;;9.80;99.90;;;;;;6092249;23;20015;-74
2023/03/22 04:14:43;;;;;;;7.45;4.82;;;9.80;99.90;;;;;;6090082;23;20081;-74
2023/03/22 04:17:09;;;;;;;9.55;5.00;;;9.90;99.90;;;;;;6092073;23;20018;-73
2023/03/22 04:19:35;;;;;;;15.75;5.97;;;9.90;99.90;;;;;;6092031;23;20037;-73
2023/03/22 04:22:02;;;;;;;11.95;6.30;;;9.80;99.90;;;;;;6091493;23;20291;-73
2023/03/22 04:24:27;;;;;;;10.82;6.50;;;9.80;99.90;;;;;;6092130;23;20006;-73
2023/03/22 04:26:53;;;;;;;12.18;7.00;;;9.80;99.90;;;;;;6092398;23;20018;-73
2023/03/22 04:29:20;;;;;;;13.73;6.60;;;9.90;99.90;;;;;;6091587;23;20020;-73
2023/03/22 04:31:46;;;;;;;12.57;6.78;;;9.90;99.90;;;;;;6089525;23;20029;-72
2023/03/22 04:34:12;;;;;;;13.35;6.57;;;9.90;99.90;;;;;;6089756;23;20071;-72
2023/03/22 04:36:38;;;;;;;12.20;7.35;;;9.90;99.90;;;;;;6089853;23;20010;-72
2023/03/22 04:39:07;;;;;;;13.07;7.97;;;9.90;99.90;;;;;;6091720;23;20022;-73
2023/03/22 04:41:34;;;;;;;15.07;7.95;;;9.90;99.90;;;;;;6091850;23;20393;-73
2023/03/22 04:44:03;;;;;;;17.00;8.55;;;9.90;99.90;;;;;;6089611;23;20015;-73
2023/03/22 04:46:30;;;;;;;16.55;9.20;;;9.90;99.90;;;;;;6091715;23;20052;-74
2023/03/22 04:48:56;;;;;;;16.90;9.32;;;9.90;99.90;;;;;;6091677;23;20314;-73
2023/03/22 04:51:22;;;;;;;19.45;9.07;;;9.90;99.90;;;;;;6089519;23;20050;-73
2023/03/22 04:53:48;;;;;;;17.50;9.20;;;9.90;99.90;;;;;;6089738;23;20410;-73
2023/03/22 04:56:14;;;;;;;15.23;9.57;;;9.90;99.90;;;;;;6091508;23;20015;-74
2023/03/22 04:58:41;;;;;;;15.45;9.70;;;9.90;99.90;;;;;;6091778;23;20019;-73
2023/03/22 05:01:11;;;;;;;19.33;9.45;;;9.90;99.90;;;;;;6092009;23;20019;-73
2023/03/22 05:03:37;;;;;;;15.00;9.15;;;9.90;99.90;;;;;;6089761;23;20089;-73
2023/03/22 05:06:05;;;;;;;17.60;9.27;;;9.90;99.90;;;;;;6092804;23;20109;-72
2023/03/22 05:08:32;;;;;;;14.77;9.32;;;9.90;99.90;;;;;;6093440;23;20089;-72
2023/03/22 05:11:03;;;;;;;14.93;9.70;;;9.90;99.90;;;;;;6091715;23;20129;-73
2023/03/22 05:13:29;;;;;;;16.75;10.32;;;9.90;99.90;;;;;;6091482;23;20017;-73
2023/03/22 05:15:55;;;;;;;17.60;10.55;;;9.90;99.90;;;;;;6093402;23;20014;-73
2023/03/22 05:18:25;;;;;;;15.68;9.30;;;9.90;99.90;;;;;;6091700;23;20026;-74
2023/03/22 05:20:54;;;;;;;14.40;9.07;;;9.90;99.90;;;;;;6093152;23;20029;-74
2023/03/22 05:23:21;;;;;;;17.45;10.32;;;9.90;99.90;;;;;;6091150;23;20034;-73
2023/03/22 05:25:48;;;;;;;18.33;9.73;;;9.90;99.90;;;;;;6093560;23;20295;-74
2023/03/22 05:28:15;;;;;;;14.60;9.57;;;9.90;99.90;;;;;;6091318;23;20346;-73
2023/03/22 05:30:42;;;;;;;18.20;9.88;;;9.90;99.90;;;;;;6092860;23;20014;-72
2023/03/22 05:33:08;;;;;;;15.63;9.40;;;9.90;99.90;;;;;;6093684;23;20050;-73
2023/03/22 05:35:36;;;;;;;15.80;8.85;;;9.90;99.90;;;;;;6093139;23;20355;-73
2023/03/22 05:38:03;;;;;;;16.80;10.07;;;9.90;99.90;;;;;;6092761;23;20464;-73
2023/03/22 05:40:28;;;;;;;18.20;10.02;;;9.90;99.90;;;;;;6092853;23;20427;-70
2023/03/22 05:42:54;;;;;;;15.77;9.18;;;9.90;99.90;;;;;;6066768;23;20014;-72
2023/03/22 05:45:21;;;;;;;18.70;10.20;;;9.90;99.90;;;;;;6091868;23;20011;-72
2023/03/22 05:47:47;;;;;;;18.00;9.30;;;9.90;99.90;;;;;;6092542;23;20337;-73
2023/03/22 05:50:15;;;;;;;16.67;9.20;;;9.90;99.90;;;;;;6092607;23;20015;-72
2023/03/22 05:52:41;;;;;;;17.77;9.48;;;9.90;99.90;;;;;;6093066;23;20399;-73
2023/03/22 05:55:08;;;;;;;18.17;10.15;;;9.90;99.90;;;;;;6093058;23;20077;-72
2023/03/22 05:57:34;;;;;;;17.92;9.73;;;9.90;99.90;;;;;;6092490;23;20438;-72
2023/03/22 06:00:00;;;;;;;15.55;9.43;;;10.00;99.90;;;;;;6093243;23;20089;-72
2023/03/22 06:02:27;;;;;;;13.85;9.13;;;9.90;99.90;;;;;;6092834;23;20063;-73
2023/03/22 06:04:53;;;;;;;20.58;10.18;;;10.00;99.90;;;;;;6092791;23;20445;-73
2023/03/22 06:07:19;;;;;;;17.50;9.38;;;10.00;99.90;;;;;;6093088;23;20033;-73
2023/03/22 06:09:45;;;;;;;15.82;8.90;;;9.90;99.90;;;;;;6093329;23;20443;-72
2023/03/22 06:12:11;;;;;;;16.35;9.45;;;10.00;99.90;;;;;;6092595;23;20434;-72
2023/03/22 06:14:36;;;;;;;22.50;10.05;;;10.00;99.90;;;;;;6066328;23;20018;-72
2023/03/22 06:17:02;;;;;;;18.45;8.32;;;10.00;99.90;;;;;;6092199;23;20339;-72
2023/03/22 06:19:28;;;;;;;16.38;8.27;;;10.00;99.90;;;;;;6091907;23;20340;-72
2023/03/22 06:21:54;;;;;;;17.98;9.00;;;10.00;99.90;;;;;;6092297;23;20343;-72
2023/03/22 06:24:20;;;;;;;18.15;8.30;;;10.00;99.90;;;;;;6066113;23;20024;-71
2023/03/22 06:26:46;;;;;;;15.52;8.20;;;10.00;99.90;;;;;;6066147;23;20023;-71
2023/03/22 06:29:12;;;;;;;13.10;8.07;;;10.00;99.90;;;;;;6092477;23;20016;-72
2023/03/22 06:31:38;;;;;;;16.88;8.15;;;10.00;99.90;;;;;;6092142;23;20043;-72
2023/03/22 06:34:04;;;;;;;14.65;8.93;;;10.00;99.90;;;;;;6092174;23;20018;-71
2023/03/22 06:36:30;;;;;;;12.80;7.60;;;10.00;99.90;;;;;;6092476;23;20090;-72
2023/03/22 06:38:58;;;;;;;13.75;7.22;;;10.00;99.90;;;;;;6066287;23;20059;-71
2023/03/22 06:41:24;;;;;;;13.30;7.47;;;10.10;99.90;;;;;;6091918;23;20065;-71
2023/03/22 06:43:49;;;;;;;13.80;7.28;;;10.00;99.90;;;;;;6066023;23;20018;-71
2023/03/22 06:46:15;;;;;;;12.98;7.55;;;10.00;99.90;;;;;;6065753;23;20383;-72
2023/03/22 06:48:41;;;;;;;11.25;6.72;;;10.10;99.90;;;;;;6092155;23;20097;-72
2023/03/22 06:51:07;;;;;;;12.60;7.80;;;10.10;99.90;;;;;;6066641;23;20093;-73
2023/03/22 06:53:33;;;;;;;11.20;7.10;;;10.20;99.90;;;;;;6092170;23;20014;-72
2023/03/22 06:55:59;;;;;;;9.23;3.83;;;10.30;99.90;;;;;;6091830;23;20089;-72
2023/03/22 06:58:25;;;;;;;14.02;6.60;;;10.50;99.90;;;;;;6091994;23;20046;-70
2023/03/22 07:00:51;;;;;;;13.73;6.32;;;10.50;99.90;;;;;;6091875;23;20018;-69
2023/03/22 07:03:16;;;;;;;9.48;6.50;;;10.40;99.90;;;;;;6092059;23;20054;-70
2023/03/22 07:05:42;;;;;;;11.65;6.22;;;10.50;99.90;;;;;;6092345;23;20343;-70
2023/03/22 07:08:09;;;;;;;10.13;6.38;;;10.50;99.90;;;;;;6092100;23;20015;-69
2023/03/22 07:10:35;;;;;;;11.05;5.93;;;10.50;99.90;;;;;;6092221;23;20021;-69
2023/03/22 07:13:02;;;;;;;14.70;6.22;;;10.50;99.90;;;;;;6091860;23;20424;-70
2023/03/22 07:15:31;;;;;;;9.15;5.82;;;10.60;99.90;;;;;;6066303;23;20111;-71
2023/03/22 07:18:02;;;;;;;14.65;6.30;;;10.60;99.90;;;;;;6092361;23;20034;-70
2023/03/22 07:20:28;;;;;;;12.70;6.38;;;10.60;99.90;;;;;;6091958;23;20050;-70
2023/03/22 07:22:53;;;;;;;10.35;5.45;;;10.60;99.90;;;;;;6092009;23;20032;-71
2023/03/22 07:25:19;;;;;;;11.63;5.35;;;10.70;99.90;;;;;;6066342;23;20026;-71
2023/03/22 07:27:45;;;;;;;10.63;5.72;;;10.70;99.90;;;;;;6066123;23;20052;-71
2023/03/22 07:30:11;;;;;;;9.75;4.63;;;10.70;99.90;;;;;;6065734;23;20019;-71
2023/03/22 07:32:40;;;;;;;10.35;5.30;;;10.70;99.90;;;;;;6091388;23;20050;-73
2023/03/22 07:35:06;;;;;;;8.90;4.30;;;10.70;99.90;;;;;;6091624;23;20021;-72
2023/03/22 07:37:32;;;;;;;7.97;5.13;;;10.70;99.90;;;;;;6091814;23;20041;-73
2023/03/22 07:39:58;;;;;;;9.07;4.47;;;10.70;99.90;;;;;;6091188;23;20319;-72
2023/03/22 07:42:24;;;;;;;7.72;4.82;;;10.70;99.90;;;;;;6091618;23;20082;-72
2023/03/22 07:44:50;;;;;;;8.50;4.47;;;10.80;99.90;;;;;;6091018;23;20283;-72
2023/03/22 07:47:16;;;;;;;13.50;4.53;;;10.80;99.90;;;;;;6065735;23;20049;-73
2023/03/22 07:49:42;;;;;;;8.43;4.65;;;10.90;99.90;;;;;;6065838;23;20465;-72
2023/03/22 07:52:08;;;;;;;11.05;4.70;;;11.00;99.90;;;;;;6091348;23;20042;-72
2023/03/22 07:54:33;;;;;;;12.77;4.60;;;11.00;99.90;;;;;;6091562;23;20130;-72
2023/03/22 07:57:00;;;;;;;10.07;4.65;;;11.10;99.90;;;;;;6092096;23;20437;-72
2023/03/22 07:59:25;;;;;;;11.48;4.30;;;11.10;99.90;;;;;;6091103;23;20056;-72
2023/03/22 08:01:51;;;;;;;9.45;4.10;;;11.10;99.90;;;;;;6065566;23;20014;-71
2023/03/22 08:04:18;;;;;;;9.60;4.65;;;11.10;99.90;;;;;;6091563;23;20065;-72
2023/03/22 08:06:45;;;;;;;14.23;4.63;;;11.00;99.90;;;;;;6091666;23;20080;-72
2023/03/22 08:09:11;;;;;;;8.93;4.15;;;11.00;99.90;;;;;;6065271;23;20299;-71
2023/03/22 08:11:36;;;;;;;10.35;4.28;;;11.00;99.90;;;;;;6065723;23;20018;-70
2023/03/22 08:14:02;;;;;;;14.43;4.47;;;11.00;99.90;;;;;;6090956;23;20090;-72
2023/03/22 08:16:28;;;;;;;9.10;3.53;;;11.00;99.90;;;;;;6091614;23;20010;-71
2023/03/22 08:18:53;;;;;;;12.15;4.47;;;11.00;99.90;;;;;;6091522;23;20014;-71
2023/03/22 08:21:19;;;;;;;7.10;3.85;;;11.00;99.90;;;;;;6091643;23;20421;-71
2023/03/22 08:23:46;;;;;;;8.80;4.25;;;11.00;99.90;;;;;;6090366;23;20011;-71
2023/03/22 08:26:12;;;;;;;10.52;3.88;;;11.00;99.90;;;;;;6064681;23;20026;-72
2023/03/22 08:28:37;;;;;;;8.65;3.85;;;11.00;99.90;;;;;;6091548;23;20018;-72
2023/03/22 08:31:13;;;;;;;13.02;4.07;;;11.00;99.90;;;;;;6064929;23;20352;-71
2023/03/22 08:33:39;;;;;;;6.40;3.58;;;11.00;99.90;;;;;;6065317;23;20050;-73
2023/03/22 08:36:07;;;;;;;8.35;4.20;;;11.00;99.90;;;;;;6065220;23;20037;-72
2023/03/22 08:38:33;;;;;;;10.50;3.90;;;11.00;99.90;;;;;;6065317;23;20343;-72
2023/03/22 08:40:59;;;;;;;5.72;3.85;;;11.00;99.90;;;;;;6092880;23;20098;-71
2023/03/22 08:43:24;;;;;;;8.18;3.67;;;11.00;99.90;;;;;;6093011;23;20019;-71
2023/03/22 08:45:50;;;;;;;9.00;3.40;;;10.90;99.90;;;;;;6093052;23;20022;-71
2023/03/22 08:48:16;;;;;;;12.98;4.00;;;11.00;99.90;;;;;;6093568;23;20085;-71
2023/03/22 08:50:42;;;;;;;9.35;3.42;;;11.00;99.90;;;;;;6093247;23;20010;-72
2023/03/22 08:53:07;;;;;;;8.68;3.33;;;11.00;99.90;;;;;;6093518;23;20494;-72
2023/03/22 08:55:36;;;;;;;14.18;4.63;;;11.00;99.90;;;;;;6093458;23;20010;-70
2023/03/22 08:58:02;;;;;;;8.85;3.33;;;11.10;99.90;;;;;;6092561;23;20287;-71
2023/03/22 09:00:29;;;;;;;4.50;3.33;;;11.00;99.90;;;;;;6066947;23;20387;-71
2023/03/22 09:02:54;;;;;;;9.80;3.10;;;11.10;99.90;;;;;;6092918;23;20399;-71
2023/03/22 09:05:20;;;;;;;10.05;3.50;;;11.10;99.90;;;;;;6092635;23;20018;-72
2023/03/22 09:07:50;;;;;;;11.10;3.65;;;11.20;99.90;;;;;;6093199;23;20015;-72
2023/03/22 09:10:16;;;;;;;7.03;3.42;;;11.30;99.90;;;;;;6092664;23;20369;-71
2023/03/22 09:12:41;;;;;;;9.82;3.60;;;11.40;99.90;;;;;;6092612;23;20010;-71
2023/03/22 09:15:07;;;;;;;14.75;3.65;;;11.40;99.90;;;;;;6092579;23;20102;-71
2023/03/22 09:17:33;;;;;;;12.57;4.75;;;11.50;99.90;;;;;;6092573;23;20022;-71
2023/03/22 09:19:59;;;;;;;6.82;3.72;;;11.50;99.90;;;;;;6092663;23;20029;-71
2023/03/22 09:22:25;;;;;;;11.90;3.53;;;11.50;99.90;;;;;;6066662;23;20018;-70
2023/03/22 09:24:51;;;;;;;9.15;3.58;;;11.50;99.90;;;;;;6092590;23;20042;-72
2023/03/22 09:27:17;;;;;;;8.07;3.58;;;11.50;99.90;;;;;;6091730;23;20006;-72
2023/03/22 09:29:42;;;;;;;8.15;3.33;;;11.50;99.90;;;;;;6092648;23;20089;-72
2023/03/22 09:32:08;;;;;;;12.05;3.50;;;11.50;99.90;;;;;;6076045;23;20608;-72
2023/03/22 09:34:34;;;;;;;10.68;3.83;;;11.50;99.90;;;;;;6090832;23;20014;-72
2023/03/22 09:37:01;;;;;;;6.72;3.20;;;11.50;99.90;;;;;;6092515;23;20014;-71
2023/03/22 09:39:27;;;;;;;14.18;3.42;;;11.50;99.90;;;;;;6090475;23;20029;-70
2023/03/22 09:42:00;;;;;;;12.38;3.10;;;11.60;99.90;;;;;;6092061;23;20282;-71
2023/03/22 09:44:32;;;;;;;8.13;3.20;;;11.60;99.90;;;;;;6092202;23;20349;-72
2023/03/22 09:47:00;;;;;;;8.43;3.20;;;11.60;99.90;;;;;;6092945;23;20457;-72
2023/03/22 09:49:35;;;;;;;9.48;3.42;;;11.60;99.90;;;;;;6092644;23;20010;-72
2023/03/22 09:52:01;;;;;;;9.13;4.78;;;11.60;99.90;;;;;;6092256;23;20391;-71
2023/03/22 09:54:36;;;;;;;13.70;3.97;;;11.60;99.90;;;;;;6090132;23;20022;-71
2023/03/22 09:57:23;;;;;;;6.93;3.75;;;11.60;99.90;;;;;;6092537;23;20287;-71
2023/03/22 10:00:13;;;;;;;8.85;3.45;;;11.60;99.90;;;;;;6092108;23;20066;-71
2023/03/22 10:02:45;;;;;;;8.13;3.17;;;11.60;99.90;;;;;;6092041;23;20018;-71
2023/03/22 10:05:40;;;;;;;12.87;3.77;;;11.60;99.90;;;;;;6092114;23;20018;-71
2023/03/22 10:08:24;;;;;;;9.55;3.47;;;11.60;99.90;;;;;;6092148;23;20040;-71
2023/03/22 10:10:51;;;;;;;16.65;3.50;;;11.60;99.90;;;;;;6090043;23;20018;-70
2023/03/22 10:13:44;;;;;;;7.80;3.05;;;11.60;99.90;;;;;;6090713;23;20114;-71
2023/03/22 10:16:15;;;;;;;12.25;3.33;;;11.50;99.90;;;;;;6091228;23;20318;-71
2023/03/22 10:18:45;;;;;;;7.78;3.20;;;11.50;99.90;;;;;;6090444;23;20030;-70
2023/03/22 10:21:14;;;;;;;7.65;3.53;;;11.50;99.90;;;;;;6092224;23;20046;-71
2023/03/22 10:23:48;;;;;;;9.50;3.67;;;11.50;99.90;;;;;;6092048;23;20018;-71
2023/03/22 10:26:39;;;;;;;10.30;3.38;;;11.40;99.90;;;;;;6092629;23;20014;-71
2023/03/22 10:29:14;;;;;;;8.65;3.33;;;11.40;99.90;;;;;;6081971;23;20089;-71
2023/03/22 10:31:43;;;;;;;10.70;3.42;;;11.40;99.90;;;;;;6090383;23;20045;-71
2023/03/22 10:34:29;;;;;;;7.88;3.50;;;11.40;99.90;;;;;;6092572;23;20029;-71
2023/03/22 10:36:59;;;;;;;8.98;3.30;;;11.40;99.90;;;;;;6090572;23;20029;-71
2023/03/22 10:39:57;;;;;;;7.93;3.80;;;11.40;99.90;;;;;;6091854;23;20109;-72
2023/03/22 10:42:27;;;;;;;11.13;3.60;;;11.40;99.90;;;;;;6065741;23;20022;-71
2023/03/22 10:45:11;;;;;;;5.63;3.35;;;11.40;99.90;;;;;;6091785;23;20337;-70
2023/03/22 10:47:51;;;;;;;4.68;3.30;;;11.40;99.90;;;;;;6089613;23;20078;-71
2023/03/22 10:50:32;;;;;;;15.43;4.00;;;11.40;99.90;;;;;;6090298;23;20022;-71
2023/03/22 10:53:02;;;;;;;10.00;3.47;;;11.30;99.90;;;;;;6089703;23;20018;-72
2023/03/22 10:55:29;;;;;;;8.23;3.42;;;11.30;99.90;;;;;;6092319;23;20089;-72
2023/03/22 10:58:13;;;;;;;8.52;3.33;;;11.20;99.90;;;;;;6089849;23;20097;-73
2023/03/22 11:00:52;;;;;;;9.48;3.40;;;11.20;99.90;;;;;;6089885;23;20087;-73
2023/03/22 11:03:27;;;;;;;9.60;3.30;;;11.20;99.90;;;;;;6091547;23;20089;-73
2023/03/22 11:06:22;;;;;;;6.93;3.17;;;11.20;99.90;;;;;;6089820;23;20081;-72
2023/03/22 11:08:56;;;;;;;12.43;3.42;;;11.20;99.90;;;;;;6089321;23;20010;-71
2023/03/22 11:11:54;;;;;;;7.78;3.17;;;11.20;99.90;;;;;;6090045;23;20090;-71
2023/03/22 11:14:24;;;;;;;8.27;3.28;;;11.30;99.90;;;;;;6076923;23;20097;-70
2023/03/22 11:16:56;;;;;;;6.55;3.47;;;11.20;99.90;;;;;;6092303;23;20053;-70
2023/03/22 11:19:32;;;;;;;10.60;3.70;;;11.20;99.90;;;;;;6090071;23;20314;-70
2023/03/22 11:21:59;;;;;;;14.25;4.22;;;11.20;99.90;;;;;;6092233;23;20025;-70
2023/03/22 11:24:27;;;;;;;10.10;3.00;;;11.20;99.90;;;;;;6092428;23;20030;-71
2023/03/22 11:27:21;;;;;;;8.30;3.30;;;11.20;99.90;;;;;;6091793;23;20089;-70
2023/03/22 11:29:52;;;;;;;13.00;3.47;;;11.10;99.90;;;;;;6091906;23;20191;-70
2023/03/22 11:32:25;;;;;;;8.60;3.03;;;11.20;99.90;;;;;;6091752;23;20101;-70
2023/03/22 11:35:10;;;;;;;10.70;3.30;;;11.10;99.90;;;;;;6092178;23;20021;-70
2023/03/22 11:37:47;;;;;;;6.95;3.53;;;11.10;99.90;;;;;;6092698;23;20042;-70
2023/03/22 11:40:22;;;;;;;8.82;3.25;;;11.00;99.90;;;;;;6092473;23;20078;-70
2023/03/22 11:42:52;;;;;;;7.30;3.30;;;11.00;99.90;;;;;;6093424;23;20010;-71
2023/03/22 11:45:31;;;;;;;6.32;3.10;;;11.10;99.90;;;;;;6092383;23;20025;-71
2023/03/22 11:48:11;;;;;;;7.13;3.28;;;11.00;99.90;;;;;;6092677;23;20068;-71
2023/03/22 11:50:39;;;;;;;7.05;3.17;;;11.00;99.90;;;;;;6067018;23;20141;-71
2023/03/22 11:53:10;;;;;;;6.85;3.20;;;10.90;99.90;;;;;;6093318;23;20062;-71
2023/03/22 11:55:36;;;;;;;8.02;3.20;;;10.90;99.90;;;;;;6092777;23;20109;-71
2023/03/22 11:58:04;;;;;;;10.10;3.60;;;10.90;99.90;;;;;;6066934;23;20014;-71
2023/03/22 12:00:36;;;;;;;6.18;3.50;;;10.90;99.90;;;;;;6092960;23;20090;-72
2023/03/22 12:03:15;;;;;;;6.53;3.35;;;10.90;99.90;;;;;;6067070;23;20034;-71
2023/03/22 12:05:43;;;;;;;10.63;3.60;;;11.00;99.90;;;;;;6092245;23;20022;-72
2023/03/22 12:08:24;;;;;;;9.80;3.33;;;11.00;99.90;;;;;;6092336;23;20093;-74
2023/03/22 12:11:00;;;;;;;6.18;3.00;;;11.00;99.90;;;;;;6092005;23;20027;-74
2023/03/22 12:13:35;;;;;;;13.20;3.47;;;11.00;99.90;;;;;;6092225;23;20014;-74
2023/03/22 12:16:04;;;;;;;7.00;3.20;;;11.00;99.90;;;;;;6067518;23;20014;-74
2023/03/22 12:18:45;;;;;;;7.57;3.00;;;11.00;99.90;;;;;;6093565;23;20113;-75
2023/03/22 12:21:20;;;;;;;7.82;3.15;;;11.00;99.90;;;;;;6086953;23;20368;-71
2023/03/22 12:23:45;;;;;;;8.93;3.20;;;11.00;99.90;;;;;;6008066;23;20027;-70
2023/03/22 12:26:11;;;;;;;6.65;3.15;;;11.00;99.90;;;;;;6007685;23;20091;-77
2023/03/22 12:28:42;;;;;;;8.85;3.08;;;11.10;99.90;;;;;;6007018;23;20019;-71
2023/03/22 12:31:20;;;;;;;6.55;2.33;;;11.10;99.90;;;;;;6008945;23;20023;-66
2023/03/22 12:33:58;;;;;;;7.35;3.08;;;11.10;99.90;;;;;;6008745;23;20071;-73
2023/03/22 12:36:34;;;;;;;8.00;3.10;;;11.00;99.90;;;;;;6008781;23;20042;-70
2023/03/22 12:39:01;;;;;;;7.15;3.45;;;11.10;99.90;;;;;;6007907;23;20308;-73
2023/03/22 12:41:34;;;;;;;8.20;3.65;;;11.10;99.90;;;;;;6007961;23;20353;-73
2023/03/22 12:44:25;;;;;;;9.48;3.17;;;11.10;99.90;;;;;;6007791;23;20028;-75
2023/03/22 12:47:23;;;;;;;7.70;4.28;;;11.10;99.90;;;;;;6007768;23;20020;-75
2023/03/22 12:50:06;;;;;;;8.93;3.00;;;11.10;99.90;;;;;;6007881;23;20054;-74
2023/03/22 12:52:37;;;;;;;9.30;2.70;;;11.10;99.90;;;;;;6006469;23;20157;-76
2023/03/22 12:55:04;;;;;;;8.57;2.70;;;11.10;99.90;;;;;;6008049;23;20019;-76
2023/03/22 12:57:30;;;;;;;7.45;3.00;;;11.10;99.90;;;;;;6007959;23;20095;-75
2023/03/22 13:00:04;;;;;;;8.93;2.92;;;11.10;99.90;;;;;;6008222;23;20023;-76